Time;durP1;ratioP1;P1;durP2;ratioP2;P2;SDS_P1;SDS_P2;PMS_P1;PMS_P2;Temp;Humidity;BMP_temperature;BMP_pressure;BME280_temperature;BME280_humidity;BME280_pressure;Samples;Min_cycle;Max_cycle;Signal;HPM_P1;HPM_P2
2021/07/29 00:00:58;;;;;;;6.03;3.90;;;19.90;82.00;;;;;;5073122;28;20935;-72
2021/07/29 00:03:25;;;;;;;4.10;3.40;;;19.90;81.70;;;;;;5073002;28;20851;-72
2021/07/29 00:05:52;;;;;;;3.77;3.37;;;19.90;81.90;;;;;;5073341;28;20440;-72
2021/07/29 00:08:20;;;;;;;4.57;4.00;;;19.90;82.40;;;;;;5073350;28;20498;-72
2021/07/29 00:10:47;;;;;;;4.83;3.23;;;20.00;82.40;;;;;;5073295;28;20506;-72
2021/07/29 00:13:14;;;;;;;4.63;3.60;;;20.00;82.00;;;;;;5073240;28;20476;-72
2021/07/29 00:15:41;;;;;;;7.70;3.43;;;20.00;82.20;;;;;;5073027;28;20459;-72
2021/07/29 00:20:53;;;;;;;3.97;3.57;;;20.10;81.70;;;;;;5073255;28;20405;-72
2021/07/29 00:23:20;;;;;;;7.40;3.83;;;20.10;81.70;;;;;;5072828;28;20472;-72
2021/07/29 00:25:46;;;;;;;7.20;4.10;;;20.10;81.80;;;;;;5072941;28;20812;-71
2021/07/29 00:28:13;;;;;;;8.50;4.17;;;20.10;82.20;;;;;;5073232;28;20453;-71
2021/07/29 00:30:40;;;;;;;8.07;4.40;;;20.00;82.30;;;;;;5073120;28;20485;-72
2021/07/29 00:33:06;;;;;;;5.03;3.97;;;19.90;82.70;;;;;;5072724;28;20966;-71
2021/07/29 00:35:35;;;;;;;10.23;4.77;;;19.80;83.00;;;;;;5073076;28;20457;-71
2021/07/29 00:38:02;;;;;;;7.83;3.50;;;19.80;83.00;;;;;;5073043;28;20455;-71
2021/07/29 00:40:29;;;;;;;6.40;4.20;;;19.70;83.40;;;;;;5073048;28;20502;-71
2021/07/29 00:42:57;;;;;;;6.43;4.30;;;19.70;83.00;;;;;;5072966;28;20457;-71
2021/07/29 00:45:24;;;;;;;4.67;3.80;;;19.60;84.10;;;;;;5072978;28;20452;-71
2021/07/29 00:47:51;;;;;;;8.00;3.63;;;19.50;84.20;;;;;;5072983;28;20448;-71
2021/07/29 00:50:18;;;;;;;5.63;3.70;;;19.40;84.40;;;;;;5072851;28;20835;-72
2021/07/29 00:52:49;;;;;;;3.83;3.37;;;19.30;84.60;;;;;;5072872;28;20885;-72
2021/07/29 00:55:19;;;;;;;5.27;3.07;;;19.10;83.00;;;;;;5072899;28;20418;-71
2021/07/29 00:57:46;;;;;;;4.27;3.47;;;19.00;84.70;;;;;;5072854;28;20440;-72
2021/07/29 01:00:14;;;;;;;4.07;3.27;;;18.90;85.30;;;;;;5072846;28;20450;-72
2021/07/29 01:02:41;;;;;;;5.20;4.03;;;18.90;86.30;;;;;;5072756;28;20469;-72
2021/07/29 01:05:09;;;;;;;6.80;4.43;;;18.90;87.00;;;;;;5072812;28;20449;-72
2021/07/29 01:07:36;;;;;;;4.43;4.03;;;18.80;86.70;;;;;;5074731;28;20953;-72
2021/07/29 01:10:06;;;;;;;6.30;3.97;;;18.80;87.20;;;;;;5076319;28;20530;-71
2021/07/29 01:12:34;;;;;;;5.30;3.57;;;18.80;87.70;;;;;;5076549;28;20448;-71
2021/07/29 01:15:01;;;;;;;6.10;3.80;;;18.80;87.90;;;;;;5076344;28;20439;-71
2021/07/29 01:17:30;;;;;;;5.17;3.60;;;18.70;87.50;;;;;;5076185;28;20440;-71
2021/07/29 01:19:59;;;;;;;4.97;4.20;;;18.60;87.60;;;;;;5076124;28;20441;-72
2021/07/29 01:22:34;;;;;;;5.30;4.27;;;18.50;88.10;;;;;;5075713;28;20559;-72
2021/07/29 01:25:01;;;;;;;3.97;3.10;;;18.50;87.90;;;;;;5076134;28;20440;-72
2021/07/29 01:27:31;;;;;;;8.67;2.93;;;18.60;87.50;;;;;;5076027;28;20436;-72
2021/07/29 01:29:59;;;;;;;4.97;3.30;;;18.60;87.40;;;;;;5075656;28;20511;-72
2021/07/29 01:32:26;;;;;;;4.30;2.93;;;18.70;87.40;;;;;;5075902;28;20472;-72
2021/07/29 01:34:53;;;;;;;5.37;2.87;;;18.70;86.80;;;;;;5075602;28;20453;-72
2021/07/29 01:37:19;;;;;;;3.87;3.10;;;18.70;86.30;;;;;;5075852;28;20455;-72
2021/07/29 01:39:47;;;;;;;6.30;3.97;;;18.70;85.80;;;;;;5075797;28;20436;-72
2021/07/29 01:42:14;;;;;;;5.57;3.00;;;18.60;85.40;;;;;;5075348;28;20861;-72
2021/07/29 01:44:41;;;;;;;3.10;2.73;;;18.60;85.60;;;;;;5075775;28;20849;-72
2021/07/29 01:47:08;;;;;;;3.30;2.97;;;18.50;85.70;;;;;;5075677;28;20450;-72
2021/07/29 01:49:35;;;;;;;6.70;3.00;;;18.50;85.80;;;;;;5075595;28;20484;-72
2021/07/29 01:52:01;;;;;;;5.03;2.97;;;18.50;86.00;;;;;;5075474;28;20448;-73
2021/07/29 01:54:28;;;;;;;4.00;3.03;;;18.50;86.20;;;;;;5075490;28;20466;-72
2021/07/29 01:56:56;;;;;;;3.90;2.80;;;18.40;85.50;;;;;;5075476;28;20536;-72
2021/07/29 01:59:23;;;;;;;7.00;3.53;;;18.40;85.60;;;;;;5075440;28;20448;-72
2021/07/29 02:01:50;;;;;;;8.10;2.73;;;18.50;86.50;;;;;;5075293;28;20444;-73
2021/07/29 02:04:17;;;;;;;9.17;3.50;;;18.40;85.20;;;;;;5075355;28;20930;-72
2021/07/29 02:06:43;;;;;;;5.53;3.10;;;18.30;85.20;;;;;;5075356;28;20453;-72
2021/07/29 02:09:10;;;;;;;4.37;3.40;;;18.40;85.70;;;;;;5075239;28;20801;-72
2021/07/29 02:11:37;;;;;;;8.50;2.87;;;18.30;85.50;;;;;;5075270;28;20515;-72
2021/07/29 02:14:06;;;;;;;4.20;3.73;;;18.40;86.60;;;;;;5075073;28;20473;-72
2021/07/29 02:16:33;;;;;;;3.13;2.60;;;18.40;86.00;;;;;;5075159;28;20445;-73
2021/07/29 02:18:59;;;;;;;4.63;3.03;;;18.40;86.30;;;;;;5074428;28;20475;-73
2021/07/29 02:21:26;;;;;;;4.10;2.97;;;18.40;86.10;;;;;;5074878;28;20515;-73
2021/07/29 02:23:53;;;;;;;4.90;3.20;;;18.40;86.50;;;;;;5074980;28;20469;-73
2021/07/29 02:26:19;;;;;;;5.67;3.13;;;18.50;86.10;;;;;;5074883;28;20448;-73
2021/07/29 02:28:46;;;;;;;5.20;3.40;;;18.40;86.00;;;;;;5074589;28;20432;-72
2021/07/29 02:31:15;;;;;;;4.83;3.30;;;18.40;86.40;;;;;;5074732;28;20476;-73
2021/07/29 02:33:42;;;;;;;8.90;3.87;;;18.40;86.40;;;;;;5074349;28;20980;-73
2021/07/29 02:36:09;;;;;;;9.83;3.47;;;18.40;86.90;;;;;;5074713;28;20451;-73
2021/07/29 02:38:35;;;;;;;9.90;3.53;;;18.30;85.20;;;;;;5074918;28;20447;-73
2021/07/29 02:41:02;;;;;;;5.30;3.57;;;18.20;86.60;;;;;;5074654;28;20885;-73
2021/07/29 02:43:29;;;;;;;8.70;3.20;;;18.20;86.60;;;;;;5074211;28;20832;-73
2021/07/29 02:45:56;;;;;;;9.90;3.80;;;18.20;87.20;;;;;;5074487;28;20445;-73
2021/07/29 02:48:24;;;;;;;5.37;3.30;;;18.20;86.80;;;;;;5074452;28;20844;-73
2021/07/29 02:50:55;;;;;;;7.20;3.70;;;18.20;88.10;;;;;;5074311;28;20476;-73
2021/07/29 02:53:22;;;;;;;7.53;3.60;;;18.20;88.20;;;;;;5074001;28;20989;-73
2021/07/29 02:55:49;;;;;;;4.90;3.80;;;18.20;88.40;;;;;;5074310;28;20448;-73
2021/07/29 02:58:16;;;;;;;8.57;3.60;;;18.20;88.50;;;;;;5074595;28;20457;-73
2021/07/29 03:00:42;;;;;;;7.73;3.90;;;18.30;88.00;;;;;;5074479;28;20441;-73
2021/07/29 03:03:09;;;;;;;4.33;3.57;;;18.30;88.00;;;;;;5074142;28;20468;-73
2021/07/29 03:05:37;;;;;;;4.90;3.20;;;18.30;88.10;;;;;;5074163;28;20444;-73
2021/07/29 03:08:04;;;;;;;5.00;3.67;;;18.30;88.00;;;;;;5074124;28;20444;-73
2021/07/29 03:10:31;;;;;;;8.10;3.60;;;18.30;87.70;;;;;;5073928;28;20476;-73
2021/07/29 03:12:59;;;;;;;6.30;3.30;;;18.30;87.60;;;;;;5073663;28;21103;-73
2021/07/29 03:15:26;;;;;;;5.70;3.57;;;18.20;88.10;;;;;;5073911;28;20643;-72
2021/07/29 03:17:53;;;;;;;13.03;4.33;;;18.20;87.90;;;;;;5073912;28;20452;-72
2021/07/29 03:20:20;;;;;;;5.37;3.80;;;18.20;87.70;;;;;;5073903;28;20444;-73
2021/07/29 03:22:48;;;;;;;9.40;3.90;;;18.20;88.70;;;;;;5073430;28;20487;-72
2021/07/29 03:25:15;;;;;;;4.53;3.63;;;18.10;87.90;;;;;;5073850;28;20444;-73
2021/07/29 03:27:41;;;;;;;3.73;3.20;;;18.00;88.80;;;;;;5073816;28;20453;-71
2021/07/29 03:30:09;;;;;;;4.53;3.67;;;18.00;88.30;;;;;;5072506;28;20484;-72
2021/07/29 03:32:36;;;;;;;4.43;3.53;;;18.10;88.70;;;;;;5073679;28;20468;-72
2021/07/29 03:35:03;;;;;;;5.87;4.17;;;18.10;89.00;;;;;;5073393;28;20863;-72
2021/07/29 03:37:29;;;;;;;8.50;4.07;;;18.10;89.00;;;;;;5073682;28;20441;-72
2021/07/29 03:40:03;;;;;;;7.83;4.17;;;18.10;88.60;;;;;;5073353;28;20946;-72
2021/07/29 03:42:30;;;;;;;8.53;3.97;;;18.10;87.40;;;;;;5073571;28;20471;-73
2021/07/29 03:44:57;;;;;;;8.47;3.27;;;18.10;87.80;;;;;;5073655;28;20455;-73
2021/07/29 03:47:24;;;;;;;5.20;3.63;;;18.00;87.30;;;;;;5073613;28;20448;-73
2021/07/29 03:49:51;;;;;;;8.33;3.20;;;18.00;86.90;;;;;;5073502;28;20460;-72
2021/07/29 03:52:17;;;;;;;6.73;3.50;;;18.00;87.00;;;;;;5073499;28;20467;-73
2021/07/29 03:54:44;;;;;;;5.93;3.17;;;18.10;86.50;;;;;;5073540;28;20475;-72
2021/07/29 03:57:12;;;;;;;5.20;3.10;;;18.00;86.20;;;;;;5073489;28;20440;-73
2021/07/29 03:59:39;;;;;;;7.50;3.40;;;18.00;86.10;;;;;;5073478;28;20447;-72
2021/07/29 04:02:09;;;;;;;5.17;2.97;;;18.00;85.30;;;;;;5073325;28;20479;-73
2021/07/29 04:04:36;;;;;;;6.67;3.50;;;17.90;85.80;;;;;;5073453;28;20432;-72
2021/07/29 04:07:04;;;;;;;3.67;3.23;;;17.90;85.70;;;;;;5073135;28;20440;-73
2021/07/29 04:09:31;;;;;;;5.10;2.57;;;17.90;86.30;;;;;;5073416;28;20445;-72
2021/07/29 04:11:58;;;;;;;3.23;2.40;;;17.90;86.40;;;;;;5073213;28;20476;-73
2021/07/29 04:14:26;;;;;;;4.97;3.13;;;17.90;86.40;;;;;;5073302;28;20445;-73
2021/07/29 04:16:53;;;;;;;7.30;3.07;;;18.00;86.70;;;;;;5073298;28;20451;-73
2021/07/29 04:19:20;;;;;;;4.80;3.73;;;18.00;86.80;;;;;;5073284;28;20447;-73
2021/07/29 04:21:46;;;;;;;6.17;3.47;;;18.00;85.90;;;;;;5073605;28;20458;-73
2021/07/29 04:24:13;;;;;;;4.77;3.27;;;18.00;85.50;;;;;;5073028;28;20943;-73
2021/07/29 04:26:40;;;;;;;6.43;3.00;;;17.90;87.00;;;;;;5073275;28;20446;-73
2021/07/29 04:29:07;;;;;;;8.37;2.93;;;18.00;86.60;;;;;;5073187;28;20452;-73
2021/07/29 04:31:35;;;;;;;5.07;2.47;;;18.00;86.40;;;;;;5072911;28;20479;-73
2021/07/29 04:34:02;;;;;;;4.90;2.53;;;18.00;85.60;;;;;;5073115;28;20864;-73
2021/07/29 04:36:29;;;;;;;6.73;2.30;;;18.10;85.20;;;;;;5073293;28;20455;-73
2021/07/29 04:38:55;;;;;;;10.80;3.70;;;18.00;84.40;;;;;;5073318;28;20456;-73
2021/07/29 04:41:22;;;;;;;4.10;2.97;;;18.00;85.10;;;;;;5074349;28;20440;-73
2021/07/29 04:43:49;;;;;;;8.47;2.70;;;18.00;84.50;;;;;;5077821;28;20461;-73
2021/07/29 04:46:15;;;;;;;5.83;2.80;;;18.00;83.70;;;;;;5078898;28;20451;-73
2021/07/29 04:48:43;;;;;;;7.60;2.50;;;18.00;84.10;;;;;;5077345;28;20455;-73
2021/07/29 04:51:10;;;;;;;11.43;2.67;;;18.00;84.40;;;;;;5076418;28;20479;-73
2021/07/29 04:53:37;;;;;;;4.77;2.70;;;18.00;84.50;;;;;;5076341;28;21111;-73
2021/07/29 04:56:04;;;;;;;4.37;2.10;;;18.00;84.40;;;;;;5076589;28;20444;-73
2021/07/29 04:58:31;;;;;;;5.33;2.40;;;17.90;83.00;;;;;;5076320;28;20950;-73
2021/07/29 05:01:02;;;;;;;7.57;2.73;;;17.90;83.80;;;;;;5076558;28;20453;-73
2021/07/29 05:03:29;;;;;;;8.33;2.90;;;17.90;84.70;;;;;;5076158;28;20465;-73
2021/07/29 05:05:57;;;;;;;4.90;2.83;;;18.00;84.50;;;;;;5076502;28;20448;-73
2021/07/29 05:08:24;;;;;;;7.13;2.90;;;18.00;83.60;;;;;;5076421;28;20452;-73
2021/07/29 05:10:50;;;;;;;8.43;3.07;;;18.00;83.80;;;;;;5076861;28;20476;-72
2021/07/29 05:13:17;;;;;;;5.80;2.80;;;18.00;84.00;;;;;;5076297;28;20468;-73
2021/07/29 05:15:44;;;;;;;8.70;2.67;;;18.00;84.20;;;;;;5076009;28;20444;-73
2021/07/29 05:18:10;;;;;;;8.03;3.07;;;18.10;84.50;;;;;;5076753;28;20452;-73
2021/07/29 05:20:37;;;;;;;6.50;2.73;;;18.10;84.10;;;;;;5076203;28;20464;-73
2021/07/29 05:23:05;;;;;;;6.83;2.77;;;18.20;83.90;;;;;;5075673;28;20484;-73
2021/07/29 05:25:35;;;;;;;6.93;2.67;;;18.20;83.40;;;;;;5076093;28;20451;-74
2021/07/29 05:28:02;;;;;;;6.30;2.70;;;18.20;83.00;;;;;;5076108;28;20439;-74
2021/07/29 05:30:29;;;;;;;11.83;2.90;;;18.20;82.60;;;;;;5075931;28;20440;-74
2021/07/29 05:32:56;;;;;;;5.00;2.80;;;18.20;82.80;;;;;;5075600;28;21013;-74
2021/07/29 05:35:22;;;;;;;5.20;2.67;;;18.20;83.10;;;;;;5075605;28;20447;-73
2021/07/29 05:37:49;;;;;;;5.93;3.07;;;18.20;83.70;;;;;;5075883;28;20474;-73
2021/07/29 05:40:17;;;;;;;8.60;2.20;;;18.20;82.00;;;;;;5075775;28;20453;-74
2021/07/29 05:42:44;;;;;;;5.30;3.07;;;18.20;82.10;;;;;;5075387;28;20456;-74
2021/07/29 05:45:11;;;;;;;6.40;2.70;;;18.10;82.30;;;;;;5075364;28;20957;-73
2021/07/29 05:47:38;;;;;;;6.67;2.97;;;18.20;82.40;;;;;;5075335;28;20455;-73
2021/07/29 05:50:05;;;;;;;6.93;2.83;;;18.20;82.50;;;;;;5075282;28;20790;-73
2021/07/29 05:52:32;;;;;;;10.40;2.70;;;18.20;83.40;;;;;;5075183;28;20485;-73
2021/07/29 05:54:58;;;;;;;6.77;2.70;;;18.20;83.20;;;;;;5074800;28;20451;-74
2021/07/29 05:57:26;;;;;;;4.73;3.10;;;18.30;82.30;;;;;;5075132;28;20459;-72
2021/07/29 05:59:53;;;;;;;4.73;2.33;;;18.30;82.20;;;;;;5075444;28;20452;-72
2021/07/29 06:02:20;;;;;;;7.20;3.03;;;18.40;81.70;;;;;;5075305;28;20472;-72
2021/07/29 06:04:47;;;;;;;5.60;2.53;;;18.50;81.60;;;;;;5075384;28;20448;-73
2021/07/29 06:07:14;;;;;;;5.03;3.00;;;18.50;81.40;;;;;;5075004;28;20922;-74
2021/07/29 06:09:41;;;;;;;5.30;2.40;;;18.50;81.40;;;;;;5075264;28;20437;-74
2021/07/29 06:12:08;;;;;;;5.00;2.00;;;18.40;80.40;;;;;;5075049;28;20484;-72
2021/07/29 06:14:36;;;;;;;5.93;3.10;;;18.50;81.30;;;;;;5075084;28;20453;-73
2021/07/29 06:17:03;;;;;;;6.43;2.57;;;18.50;81.30;;;;;;5075136;28;20452;-73
2021/07/29 06:19:31;;;;;;;6.10;2.30;;;18.50;81.30;;;;;;5075009;28;20949;-74
2021/07/29 06:21:58;;;;;;;6.77;2.50;;;18.50;80.10;;;;;;5074442;28;21046;-73
2021/07/29 06:24:25;;;;;;;7.50;2.40;;;18.50;80.40;;;;;;5074937;28;20449;-73
2021/07/29 06:26:53;;;;;;;6.50;2.50;;;18.60;80.50;;;;;;5074758;28;20506;-73
2021/07/29 06:29:20;;;;;;;8.10;2.30;;;18.60;80.50;;;;;;5074797;28;20444;-73
2021/07/29 06:31:48;;;;;;;8.27;2.90;;;18.60;80.00;;;;;;5074660;28;20488;-73
2021/07/29 06:34:15;;;;;;;9.43;2.60;;;18.70;79.80;;;;;;5074726;28;20456;-73
2021/07/29 06:36:41;;;;;;;9.17;2.73;;;18.70;79.40;;;;;;5074363;28;20935;-73
2021/07/29 06:39:08;;;;;;;9.43;3.10;;;18.80;79.20;;;;;;5074603;28;20456;-73
2021/07/29 06:41:35;;;;;;;7.60;2.00;;;18.80;78.20;;;;;;5074594;28;20441;-73
2021/07/29 06:44:05;;;;;;;10.30;2.27;;;18.80;77.60;;;;;;5074475;28;20469;-73
2021/07/29 06:46:35;;;;;;;5.57;2.47;;;18.80;79.60;;;;;;5074545;28;20425;-73
2021/07/29 06:49:03;;;;;;;8.30;2.53;;;18.90;78.00;;;;;;5074107;28;20448;-73
2021/07/29 06:51:30;;;;;;;6.10;2.50;;;18.90;77.30;;;;;;5074303;28;20484;-73
2021/07/29 06:53:59;;;;;;;5.97;2.07;;;18.90;75.80;;;;;;5073950;28;20468;-73
2021/07/29 06:56:25;;;;;;;8.30;2.67;;;19.00;76.40;;;;;;5074263;28;20445;-73
2021/07/29 06:58:52;;;;;;;9.03;2.40;;;19.10;76.60;;;;;;5074228;28;20444;-73
2021/07/29 07:01:19;;;;;;;5.17;1.90;;;19.20;76.70;;;;;;5074150;28;20448;-73
2021/07/29 07:03:46;;;;;;;6.23;2.50;;;19.30;76.50;;;;;;5074147;28;20490;-73
2021/07/29 07:06:15;;;;;;;8.33;2.43;;;19.40;75.90;;;;;;5073979;28;20452;-73
2021/07/29 07:08:41;;;;;;;7.50;2.60;;;19.50;76.30;;;;;;5074084;28;20456;-73
2021/07/29 07:11:14;;;;;;;8.10;2.17;;;19.50;74.10;;;;;;5074003;28;20498;-73
2021/07/29 07:13:43;;;;;;;4.63;2.30;;;19.60;73.60;;;;;;5074013;28;20464;-73
2021/07/29 07:16:10;;;;;;;5.13;1.93;;;19.80;72.60;;;;;;5073942;28;20449;-73
2021/07/29 07:18:37;;;;;;;6.27;1.90;;;19.90;72.70;;;;;;5073938;28;20838;-73
2021/07/29 07:21:05;;;;;;;11.43;2.20;;;20.10;71.90;;;;;;5073871;28;20456;-73
2021/07/29 07:23:34;;;;;;;9.30;2.10;;;20.20;70.80;;;;;;5073401;28;20476;-73
2021/07/29 07:26:01;;;;;;;5.53;2.03;;;20.30;71.40;;;;;;5073806;28;20440;-73
2021/07/29 07:28:28;;;;;;;6.13;2.00;;;20.30;69.70;;;;;;5073769;28;20449;-73
2021/07/29 07:30:54;;;;;;;10.40;1.80;;;20.30;67.50;;;;;;5073450;28;20946;-73
2021/07/29 07:33:21;;;;;;;5.57;1.90;;;20.30;67.80;;;;;;5073563;28;20534;-73
2021/07/29 07:35:49;;;;;;;5.63;2.00;;;20.30;66.40;;;;;;5073632;28;20536;-73
2021/07/29 07:38:16;;;;;;;9.23;2.13;;;20.20;67.30;;;;;;5073667;28;20455;-73
2021/07/29 07:40:44;;;;;;;4.90;1.70;;;20.10;65.80;;;;;;5073646;28;20452;-73
2021/07/29 07:43:11;;;;;;;5.30;1.57;;;20.10;66.60;;;;;;5073507;28;20472;-73
2021/07/29 07:45:37;;;;;;;6.53;2.47;;;20.10;66.80;;;;;;5073558;28;20468;-73
2021/07/29 07:48:06;;;;;;;5.50;1.97;;;20.10;66.30;;;;;;5073546;28;20444;-73
2021/07/29 07:50:33;;;;;;;5.57;2.03;;;20.10;66.70;;;;;;5073709;28;20498;-73
2021/07/29 07:53:04;;;;;;;9.57;2.37;;;20.10;67.80;;;;;;5073369;28;20484;-73
2021/07/29 07:55:31;;;;;;;5.53;1.50;;;20.20;68.70;;;;;;5073539;28;20519;-73
2021/07/29 07:57:59;;;;;;;3.80;1.77;;;20.30;66.30;;;;;;5074041;28;20449;-73
2021/07/29 08:00:26;;;;;;;6.00;1.73;;;20.40;68.80;;;;;;5073465;28;20490;-73
2021/07/29 08:02:52;;;;;;;5.20;2.00;;;20.40;66.60;;;;;;5073348;28;20475;-73
2021/07/29 08:05:19;;;;;;;4.73;2.10;;;20.40;66.40;;;;;;5073370;28;20451;-73
2021/07/29 08:07:46;;;;;;;9.53;2.17;;;20.50;63.20;;;;;;5073069;28;20440;-73
2021/07/29 08:10:12;;;;;;;4.17;2.03;;;20.60;66.00;;;;;;5073050;28;20960;-73
2021/07/29 08:12:39;;;;;;;3.00;1.60;;;20.70;62.50;;;;;;5073200;28;20480;-73
2021/07/29 08:15:08;;;;;;;6.63;2.43;;;20.70;63.70;;;;;;5073310;28;20448;-73
2021/07/29 08:17:35;;;;;;;4.93;2.37;;;20.60;63.60;;;;;;5075861;28;20456;-73
2021/07/29 08:20:02;;;;;;;10.40;3.07;;;20.50;64.00;;;;;;5077276;28;20451;-73
2021/07/29 08:22:29;;;;;;;6.60;2.17;;;20.50;66.10;;;;;;5076671;28;20877;-73
2021/07/29 08:24:58;;;;;;;6.30;2.67;;;20.50;65.20;;;;;;5077235;28;20448;-73
2021/07/29 08:27:24;;;;;;;4.57;1.93;;;20.40;64.00;;;;;;5077211;28;20448;-72
2021/07/29 08:29:51;;;;;;;6.27;2.10;;;20.40;64.40;;;;;;5076864;28;20440;-72
2021/07/29 08:32:19;;;;;;;4.77;1.70;;;20.50;64.70;;;;;;5076952;28;20484;-71
2021/07/29 08:34:46;;;;;;;3.97;1.93;;;20.60;64.10;;;;;;5077006;28;20483;-72
2021/07/29 08:37:13;;;;;;;4.90;2.10;;;20.80;63.10;;;;;;5076668;28;20938;-73
2021/07/29 08:39:40;;;;;;;11.20;2.37;;;20.90;63.30;;;;;;5076934;28;20489;-73
2021/07/29 08:42:07;;;;;;;2.70;1.47;;;21.20;65.00;;;;;;5076817;28;20475;-72
2021/07/29 08:44:35;;;;;;;4.30;1.80;;;21.50;62.70;;;;;;5076902;28;20476;-73
2021/07/29 08:47:02;;;;;;;8.27;1.70;;;21.70;60.50;;;;;;5076861;28;20472;-72
2021/07/29 08:49:31;;;;;;;3.60;1.60;;;22.10;59.50;;;;;;5076579;28;20938;-71
2021/07/29 08:51:58;;;;;;;5.90;1.70;;;22.20;58.00;;;;;;5076566;28;20504;-71
2021/07/29 08:54:24;;;;;;;3.63;1.50;;;22.30;58.30;;;;;;5076590;28;20456;-72
2021/07/29 08:56:51;;;;;;;4.37;1.30;;;22.30;57.00;;;;;;5076310;28;20992;-73
2021/07/29 08:59:18;;;;;;;7.97;2.07;;;22.10;56.60;;;;;;5076570;28;20453;-72
2021/07/29 09:01:46;;;;;;;11.27;2.40;;;21.80;58.00;;;;;;5076400;28;20451;-74
2021/07/29 09:04:13;;;;;;;8.67;2.00;;;21.80;59.50;;;;;;5076634;28;20460;-73
2021/07/29 09:06:56;;;;;;;6.80;1.90;;;22.00;58.90;;;;;;5076313;28;20448;-74
2021/07/29 09:09:39;;;;;;;8.50;2.10;;;22.30;58.20;;;;;;5076005;28;20515;-72
2021/07/29 09:12:17;;;;;;;3.93;1.40;;;22.50;55.30;;;;;;5076250;28;20464;-72
2021/07/29 09:14:44;;;;;;;5.17;2.07;;;22.60;55.60;;;;;;5075960;28;20891;-72
2021/07/29 09:17:11;;;;;;;14.80;2.23;;;22.80;55.90;;;;;;5076293;28;20444;-74
2021/07/29 09:19:40;;;;;;;3.97;1.60;;;23.00;55.20;;;;;;5076217;28;20813;-72
2021/07/29 09:22:13;;;;;;;6.30;1.97;;;23.10;53.90;;;;;;5075552;28;20962;-72
2021/07/29 09:25:00;;;;;;;5.90;1.70;;;23.10;54.10;;;;;;5076126;28;20429;-72
2021/07/29 09:27:28;;;;;;;8.73;1.90;;;23.00;53.00;;;;;;5076031;28;20437;-72
2021/07/29 09:30:08;;;;;;;7.43;1.77;;;22.90;52.50;;;;;;5075941;28;20453;-72
2021/07/29 09:32:35;;;;;;;5.60;1.60;;;22.80;53.50;;;;;;5075932;28;20484;-72
2021/07/29 09:35:01;;;;;;;14.73;1.60;;;22.80;53.80;;;;;;5076020;28;20467;-72
2021/07/29 09:37:30;;;;;;;5.57;1.63;;;22.70;53.80;;;;;;5075754;28;20452;-72
2021/07/29 09:40:01;;;;;;;4.27;1.77;;;22.70;53.30;;;;;;5075841;28;20455;-73
2021/07/29 09:42:28;;;;;;;3.43;1.70;;;22.80;53.80;;;;;;5075439;28;20456;-73
2021/07/29 09:44:56;;;;;;;5.80;1.73;;;23.00;53.00;;;;;;5075789;28;20448;-72
2021/07/29 09:47:24;;;;;;;6.90;1.67;;;22.80;53.00;;;;;;5075682;28;20453;-72
2021/07/29 09:49:52;;;;;;;6.10;1.73;;;22.60;53.00;;;;;;5075635;28;20570;-72
2021/07/29 09:52:19;;;;;;;6.77;2.10;;;22.70;54.20;;;;;;5075436;28;20515;-72
2021/07/29 09:54:48;;;;;;;5.57;1.63;;;22.70;52.70;;;;;;5075456;28;20440;-72
2021/07/29 09:57:15;;;;;;;8.13;1.90;;;22.90;53.60;;;;;;5075481;28;20444;-72
2021/07/29 09:59:42;;;;;;;5.77;1.70;;;23.10;52.20;;;;;;5074814;28;20938;-72
2021/07/29 10:02:09;;;;;;;9.00;2.40;;;23.30;53.40;;;;;;5075444;28;20464;-72
2021/07/29 10:04:43;;;;;;;6.37;1.80;;;23.50;54.80;;;;;;5075395;28;20448;-72
2021/07/29 10:07:19;;;;;;;5.50;1.70;;;23.80;52.60;;;;;;5074954;28;21010;-73
2021/07/29 10:09:49;;;;;;;5.30;1.63;;;24.00;50.60;;;;;;5074993;28;20429;-72
2021/07/29 10:12:22;;;;;;;5.10;2.10;;;24.30;53.30;;;;;;5074711;28;21021;-73
2021/07/29 10:14:51;;;;;;;4.80;2.03;;;24.50;49.60;;;;;;5075300;28;20432;-72
2021/07/29 10:17:19;;;;;;;7.03;1.83;;;24.60;48.20;;;;;;5075733;28;20812;-72
2021/07/29 10:20:20;;;;;;;4.13;1.53;;;24.90;48.50;;;;;;5075130;28;20452;-72
2021/07/29 10:22:48;;;;;;;7.17;1.93;;;25.20;47.70;;;;;;5072843;28;20479;-72
2021/07/29 10:25:16;;;;;;;6.67;2.30;;;25.40;48.30;;;;;;5074972;28;20452;-72
2021/07/29 10:28:16;;;;;;;7.90;1.63;;;25.70;46.50;;;;;;5074955;28;20459;-72
2021/07/29 10:30:52;;;;;;;4.60;1.90;;;25.80;46.30;;;;;;5074992;28;20447;-72
2021/07/29 10:33:19;;;;;;;5.30;1.77;;;26.40;46.50;;;;;;5074678;28;20487;-72
2021/07/29 10:35:45;;;;;;;7.17;1.97;;;26.90;43.80;;;;;;5074790;28;20506;-73
2021/07/29 10:38:14;;;;;;;4.93;1.63;;;27.30;43.40;;;;;;5074753;28;20849;-73
2021/07/29 10:40:43;;;;;;;3.40;1.90;;;27.70;41.50;;;;;;5074291;28;20499;-73
2021/07/29 10:43:40;;;;;;;7.67;1.73;;;28.20;40.10;;;;;;5074528;28;20560;-72
2021/07/29 10:46:07;;;;;;;6.93;1.40;;;28.30;38.90;;;;;;5061653;28;20480;-73
2021/07/29 10:52:09;;;;;;;8.50;2.00;;;28.40;36.80;;;;;;5070584;28;20431;-73
2021/07/29 10:54:37;;;;;;;6.33;1.97;;;28.50;37.20;;;;;;5074373;28;20436;-74
2021/07/29 10:57:07;;;;;;;5.60;1.90;;;28.60;37.00;;;;;;5074346;28;20531;-74
2021/07/29 10:59:34;;;;;;;6.43;2.17;;;28.70;36.90;;;;;;5073992;28;20823;-72
2021/07/29 11:02:04;;;;;;;5.70;1.87;;;28.90;35.60;;;;;;5074139;28;20444;-72
2021/07/29 11:04:31;;;;;;;2.80;1.60;;;28.70;36.20;;;;;;5074302;28;20445;-72
2021/07/29 11:07:01;;;;;;;10.10;2.00;;;28.50;36.20;;;;;;5074129;28;20440;-72
2021/07/29 11:09:32;;;;;;;5.67;1.70;;;28.40;34.50;;;;;;5074238;28;20447;-72
2021/07/29 11:11:59;;;;;;;6.27;2.47;;;28.90;35.50;;;;;;5073943;28;20452;-72
2021/07/29 11:14:30;;;;;;;7.33;2.27;;;29.40;33.20;;;;;;5073950;28;20484;-73
2021/07/29 11:16:58;;;;;;;8.13;2.40;;;29.70;33.30;;;;;;5073821;28;20918;-73
2021/07/29 11:19:25;;;;;;;7.53;1.80;;;30.50;32.90;;;;;;5074032;28;20456;-72
2021/07/29 11:22:05;;;;;;;6.10;2.20;;;30.80;31.60;;;;;;5073491;28;20885;-73
2021/07/29 11:24:32;;;;;;;4.47;1.63;;;31.10;30.80;;;;;;5074010;28;20436;-73
2021/07/29 11:27:00;;;;;;;4.27;1.90;;;31.20;29.60;;;;;;5073949;28;20444;-73
2021/07/29 11:29:28;;;;;;;5.60;1.70;;;31.60;29.10;;;;;;5073662;28;20452;-73
2021/07/29 11:31:56;;;;;;;3.70;1.60;;;32.00;29.40;;;;;;5073525;28;20862;-74
2021/07/29 11:34:30;;;;;;;4.87;1.70;;;32.10;28.00;;;;;;5073584;28;20480;-74
2021/07/29 11:36:57;;;;;;;6.73;2.07;;;32.30;28.80;;;;;;5074282;28;20510;-74
2021/07/29 11:39:25;;;;;;;7.20;2.30;;;32.10;28.20;;;;;;5073829;28;20452;-73
2021/07/29 11:41:53;;;;;;;7.37;2.10;;;31.80;29.50;;;;;;5073734;28;20470;-74
2021/07/29 11:44:20;;;;;;;3.23;1.57;;;31.50;30.30;;;;;;5073733;28;20443;-73
2021/07/29 11:46:55;;;;;;;4.13;1.93;;;30.90;30.20;;;;;;5073491;28;20456;-74
2021/07/29 11:49:22;;;;;;;8.53;2.30;;;31.10;30.60;;;;;;5073632;28;20452;-73
2021/07/29 11:52:05;;;;;;;4.10;1.83;;;31.10;31.10;;;;;;5072730;28;20448;-73
2021/07/29 11:54:32;;;;;;;5.80;2.07;;;31.10;31.40;;;;;;5073339;28;20484;-73
2021/07/29 11:56:59;;;;;;;4.10;1.80;;;31.50;30.30;;;;;;5073315;28;20448;-73
2021/07/29 11:59:26;;;;;;;5.00;2.50;;;32.10;29.80;;;;;;5073373;28;20448;-74
2021/07/29 12:01:56;;;;;;;4.90;2.50;;;32.60;29.90;;;;;;5073188;28;20444;-73
2021/07/29 12:04:27;;;;;;;5.13;1.77;;;33.00;28.40;;;;;;5072853;28;20844;-73
2021/07/29 12:06:54;;;;;;;5.93;2.50;;;33.20;26.90;;;;;;5073423;28;20456;-73
2021/07/29 12:09:22;;;;;;;9.83;2.10;;;32.90;27.40;;;;;;5073431;28;20850;-74
2021/07/29 12:11:51;;;;;;;12.53;2.13;;;32.70;27.90;;;;;;5073129;28;20843;-73
2021/07/29 12:14:18;;;;;;;11.83;1.90;;;32.70;27.20;;;;;;5072846;28;20993;-74
2021/07/29 12:16:47;;;;;;;9.97;2.20;;;32.00;29.60;;;;;;5073177;28;20444;-74
2021/07/29 12:19:15;;;;;;;5.20;1.70;;;31.70;29.00;;;;;;5073125;28;20451;-74
2021/07/29 12:21:42;;;;;;;7.00;1.77;;;31.50;28.70;;;;;;5073015;28;20831;-73
2021/07/29 12:24:09;;;;;;;10.83;2.50;;;31.30;29.20;;;;;;5074053;28;20464;-73
2021/07/29 12:26:35;;;;;;;9.83;2.13;;;31.40;29.00;;;;;;5072959;28;20440;-73
2021/07/29 12:29:03;;;;;;;6.00;2.00;;;31.50;28.40;;;;;;5073062;28;20463;-73
2021/07/29 12:31:31;;;;;;;9.43;2.20;;;31.60;27.90;;;;;;5073073;28;20447;-73
2021/07/29 12:34:00;;;;;;;14.17;2.47;;;31.50;28.30;;;;;;5072853;28;20496;-73
2021/07/29 12:36:41;;;;;;;6.83;1.83;;;31.20;28.70;;;;;;5072734;28;20807;-74
2021/07/29 12:39:08;;;;;;;12.63;2.10;;;31.50;29.80;;;;;;5072730;28;20861;-73
2021/07/29 12:41:36;;;;;;;4.13;1.90;;;32.00;27.70;;;;;;5073052;28;20789;-74
2021/07/29 12:44:07;;;;;;;5.10;2.00;;;32.50;29.00;;;;;;5072618;28;20977;-73
2021/07/29 12:46:34;;;;;;;5.43;2.20;;;32.50;27.50;;;;;;5073126;28;20451;-74
2021/07/29 12:49:01;;;;;;;4.77;1.80;;;31.80;28.30;;;;;;5072964;28;20478;-74
2021/07/29 12:51:36;;;;;;;8.10;1.97;;;31.00;28.90;;;;;;5072550;28;20454;-73
2021/07/29 12:54:03;;;;;;;8.00;2.27;;;30.00;30.70;;;;;;5072508;28;20989;-73
2021/07/29 12:56:30;;;;;;;9.43;2.47;;;29.30;31.90;;;;;;5072673;28;20459;-73